createdAt,value
2023-04-02T00:01:47.100Z,1.10
2023-04-02T00:04:30.177Z,0.80
2023-04-02T00:07:30.782Z,0.70
2023-04-02T00:10:26.425Z,0.85
2023-04-02T00:13:20.812Z,0.73
2023-04-02T00:16:05.385Z,0.90
2023-04-02T00:18:49.840Z,0.80
2023-04-02T00:21:34.760Z,0.68
2023-04-02T00:24:20.482Z,0.80
2023-04-02T00:27:03.166Z,0.60
2023-04-02T00:29:49.800Z,0.70
2023-04-02T00:32:34.102Z,0.88
2023-04-02T00:35:20.450Z,0.63
2023-04-02T00:38:03.545Z,0.90
2023-04-02T00:40:48.119Z,0.68
2023-04-02T00:43:33.183Z,0.77
2023-04-02T00:46:16.775Z,0.80
2023-04-02T00:49:02.092Z,0.82
2023-04-02T00:51:47.581Z,0.70
2023-04-02T00:54:32.197Z,0.70
2023-04-02T00:57:18.445Z,0.80
2023-04-02T01:00:05.643Z,0.68
2023-04-02T01:03:04.559Z,0.68
2023-04-02T01:05:50.317Z,0.70
2023-04-02T01:08:40.977Z,0.63
2023-04-02T01:11:47.392Z,0.70
2023-04-02T01:14:37.724Z,0.63
2023-04-02T01:17:30.370Z,0.55
2023-04-02T01:20:35.591Z,1.10
2023-04-02T01:23:19.786Z,0.90
2023-04-02T01:26:05.860Z,0.60
2023-04-02T01:28:59.227Z,0.70
2023-04-02T01:31:42.554Z,0.68
2023-04-02T01:34:27.158Z,0.80
2023-04-02T01:37:16.704Z,0.70
2023-04-02T01:40:06.644Z,0.80
2023-04-02T01:42:53.529Z,0.82
2023-04-02T01:45:38.359Z,0.70
2023-04-02T01:48:24.952Z,0.60
2023-04-02T01:51:08.392Z,0.80
2023-04-02T01:53:51.204Z,0.70
2023-04-02T01:56:34.165Z,0.88
2023-04-02T01:59:17.966Z,0.90
2023-04-02T02:02:03.647Z,0.98
2023-04-02T02:04:48.242Z,0.80
2023-04-02T02:07:30.951Z,0.82
2023-04-02T02:10:15.391Z,0.60
2023-04-02T02:13:00.194Z,0.70
2023-04-02T02:15:42.843Z,0.60
2023-04-02T02:18:27.553Z,0.60
2023-04-02T02:21:10.595Z,0.80
2023-04-02T02:23:53.401Z,0.73
2023-04-02T02:26:36.886Z,0.80
2023-04-02T02:29:20.989Z,0.77
2023-04-02T02:32:04.594Z,0.88
2023-04-02T02:34:50.949Z,0.60
2023-04-02T02:37:37.260Z,0.90
2023-04-02T02:40:21.531Z,0.90
2023-04-02T02:43:06.486Z,0.90
2023-04-02T02:45:49.859Z,0.70
2023-04-02T02:48:36.322Z,0.63
2023-04-02T02:51:22.354Z,0.60
2023-04-02T02:54:07.749Z,0.73
2023-04-02T02:56:54.309Z,0.68
2023-04-02T02:59:37.229Z,0.73
2023-04-02T03:02:20.546Z,0.65
2023-04-02T03:05:04.757Z,0.80
2023-04-02T03:07:50.003Z,0.70
2023-04-02T03:10:37.680Z,0.70
2023-04-02T03:13:23.008Z,0.60
2023-04-02T03:16:09.639Z,0.60
2023-04-02T03:18:55.371Z,0.70
2023-04-02T03:21:40.928Z,0.77
2023-04-02T03:24:29.686Z,0.70
2023-04-02T03:27:13.933Z,0.70
2023-04-02T03:30:05.302Z,0.73
2023-04-02T03:32:52.193Z,0.80
2023-04-02T03:35:37.323Z,0.70
2023-04-02T03:38:23.055Z,0.80
2023-04-02T03:41:11.071Z,0.73
2023-04-02T03:43:55.303Z,0.75
2023-04-02T03:46:40.404Z,0.80
2023-04-02T03:49:26.436Z,0.73
2023-04-02T03:52:11.610Z,0.63
2023-04-02T03:54:55.656Z,0.80
2023-04-02T03:57:43.776Z,0.60
2023-04-02T04:00:30.844Z,0.80
2023-04-02T04:03:14.770Z,0.63
2023-04-02T04:06:00.235Z,0.70
2023-04-02T04:08:45.035Z,0.73
2023-04-02T04:11:29.558Z,0.60
2023-04-02T04:14:17.651Z,0.77
2023-04-02T04:17:04.413Z,0.50
2023-04-02T04:19:49.658Z,0.60
2023-04-02T04:22:33.780Z,0.70
2023-04-02T04:25:30.659Z,0.77
2023-04-02T04:28:24.290Z,0.80
2023-04-02T04:31:17.790Z,0.70
2023-04-02T04:34:07.179Z,0.60
2023-04-02T04:36:56.649Z,0.65
2023-04-02T04:39:45.999Z,0.70
2023-04-02T04:42:31.002Z,0.70
2023-04-02T04:45:18.689Z,0.73
2023-04-02T04:48:05.815Z,0.80
2023-04-02T04:50:50.265Z,0.80
2023-04-02T04:53:33.476Z,0.70
2023-04-02T04:56:19.753Z,0.50
2023-04-02T04:59:14.083Z,0.65
2023-04-02T05:02:01.620Z,0.70
2023-04-02T05:04:49.721Z,0.45
2023-04-02T05:07:36.906Z,0.73
2023-04-02T05:10:24.599Z,0.60
2023-04-02T05:13:11.711Z,0.30
2023-04-02T05:16:01.302Z,0.60
2023-04-02T05:18:46.255Z,0.70
2023-04-02T05:21:35.313Z,0.60
2023-04-02T05:24:29.894Z,0.50
2023-04-02T05:27:25.142Z,0.68
2023-04-02T05:30:10.768Z,0.50
2023-04-02T05:32:56.192Z,0.50
2023-04-02T05:35:43.481Z,0.60
2023-04-02T05:38:29.561Z,0.77
2023-04-02T05:41:18.323Z,0.50
2023-04-02T05:44:04.796Z,0.80
2023-04-02T05:46:49.594Z,0.50
2023-04-02T05:49:36.504Z,0.70
2023-04-02T05:52:23.204Z,0.55
2023-04-02T05:55:24.354Z,0.70
2023-04-02T05:58:33.998Z,0.50
2023-04-02T06:01:21.890Z,0.65
2023-04-02T06:04:12.534Z,0.50
2023-04-02T06:06:59.366Z,0.70
2023-04-02T06:09:44.961Z,0.50
2023-04-02T06:12:31.432Z,0.50
2023-04-02T06:15:16.171Z,0.40
2023-04-02T06:18:01.111Z,0.52
2023-04-02T06:20:44.384Z,0.65
2023-04-02T06:23:31.089Z,0.50
2023-04-02T06:26:20.252Z,0.50
2023-04-02T06:29:06.943Z,0.40
2023-04-02T06:31:51.899Z,0.60
2023-04-02T06:34:37.817Z,0.65
2023-04-02T06:37:27.617Z,0.65
2023-04-02T06:40:28.942Z,0.70
2023-04-02T06:43:17.596Z,0.60
2023-04-02T06:46:19.178Z,0.70
2023-04-02T06:49:20.635Z,0.60
2023-04-02T06:52:06.355Z,0.70
2023-04-02T06:54:49.356Z,0.60
2023-04-02T06:57:35.679Z,0.47
2023-04-02T07:00:24.940Z,0.45
2023-04-02T07:03:14.709Z,0.50
2023-04-02T07:05:58.260Z,0.50
2023-04-02T07:08:41.079Z,0.60
2023-04-02T07:11:24.127Z,0.65
2023-04-02T07:14:11.352Z,0.68
2023-04-02T07:16:54.105Z,0.47
2023-04-02T07:19:38.494Z,0.50
2023-04-02T07:22:22.145Z,0.50
2023-04-02T07:25:10.015Z,0.50
2023-04-02T07:27:52.975Z,0.50
2023-04-02T07:30:35.617Z,0.55
2023-04-02T07:33:19.286Z,0.50
2023-04-02T07:36:03.325Z,0.60
2023-04-02T07:38:46.311Z,0.60
2023-04-02T07:41:29.129Z,0.68
2023-04-02T07:44:11.936Z,0.47
2023-04-02T07:46:54.985Z,0.50
2023-04-02T07:49:37.750Z,0.40
2023-04-02T07:52:22.419Z,0.40
2023-04-02T07:55:05.532Z,0.63
2023-04-02T07:57:49.601Z,0.40
2023-04-02T08:00:32.561Z,0.40
2023-04-02T08:03:16.439Z,0.57
2023-04-02T08:05:59.335Z,0.60
2023-04-02T08:08:43.606Z,0.52
2023-04-02T08:11:27.019Z,0.40
2023-04-02T08:14:09.738Z,0.50
2023-04-02T08:16:53.990Z,0.40
2023-04-02T08:19:47.802Z,0.60
2023-04-02T08:22:36.681Z,0.68
2023-04-02T08:25:20.667Z,0.80
2023-04-02T08:28:03.397Z,0.40
2023-04-02T08:30:46.320Z,0.50
2023-04-02T08:33:29.069Z,0.57
2023-04-02T08:36:15.672Z,0.50
2023-04-02T08:38:58.577Z,0.50
2023-04-02T08:41:46.788Z,0.60
2023-04-02T08:44:33.912Z,0.52
2023-04-02T08:47:16.865Z,0.68
2023-04-02T08:50:01.678Z,0.60
2023-04-02T08:52:44.416Z,0.50
2023-04-02T08:55:37.795Z,0.43
2023-04-02T08:58:27.403Z,0.40
2023-04-02T09:01:17.495Z,0.40
2023-04-02T09:04:00.558Z,0.70
2023-04-02T09:06:43.995Z,0.47
2023-04-02T09:09:27.151Z,0.40
2023-04-02T09:12:17.293Z,0.40
2023-04-02T09:15:07.200Z,0.40
2023-04-02T09:17:54.030Z,0.50
2023-04-02T09:20:37.509Z,0.40
2023-04-02T09:23:21.923Z,0.30
2023-04-02T09:26:19.135Z,0.40
2023-04-02T09:29:06.514Z,0.80
2023-04-02T09:31:51.785Z,0.55
2023-04-02T09:34:35.316Z,0.40
2023-04-02T09:37:18.808Z,0.60
2023-04-02T09:40:12.049Z,0.63
2023-04-02T09:43:05.230Z,0.60
2023-04-02T09:45:57.069Z,0.68
2023-04-02T09:48:43.806Z,0.70
2023-04-02T09:51:27.228Z,0.55
2023-04-02T09:54:13.935Z,0.50
2023-04-02T09:57:01.662Z,0.80
2023-04-02T09:59:44.392Z,0.60
2023-04-02T10:02:30.660Z,0.60
2023-04-02T10:05:36.974Z,0.40
2023-04-02T10:08:26.264Z,0.38
2023-04-02T10:11:11.342Z,0.30
2023-04-02T10:13:55.706Z,0.60
2023-04-02T10:16:40.847Z,0.47
2023-04-02T10:19:26.421Z,0.50
2023-04-02T10:22:14.118Z,0.63
2023-04-02T10:24:59.089Z,0.47
2023-04-02T10:27:46.756Z,0.60
2023-04-02T10:30:30.931Z,0.70
2023-04-02T10:33:16.610Z,0.63
2023-04-02T10:36:04.253Z,0.50
2023-04-02T10:38:50.871Z,0.50
2023-04-02T10:41:34.564Z,0.80
2023-04-02T10:44:30.172Z,0.50
2023-04-02T10:47:17.216Z,0.40
2023-04-02T10:50:03.212Z,0.55
2023-04-02T10:52:47.351Z,0.55
2023-04-02T10:55:34.384Z,0.50
2023-04-02T10:58:20.303Z,0.60
2023-04-02T11:01:05.368Z,0.50
2023-04-02T11:03:49.813Z,0.60
2023-04-02T11:06:33.890Z,0.60
2023-04-02T11:09:18.005Z,0.60
2023-04-02T11:12:02.730Z,0.70
2023-04-02T11:14:45.370Z,0.50
2023-04-02T11:17:28.031Z,0.60
2023-04-02T11:20:29.080Z,0.50
2023-04-02T11:23:12.618Z,0.50
2023-04-02T11:26:18.371Z,0.70
2023-04-02T11:29:18.616Z,0.50
2023-04-02T11:32:17.112Z,0.60
2023-04-02T11:35:07.284Z,0.55
2023-04-02T11:37:50.646Z,0.50
2023-04-02T11:40:46.886Z,0.60
2023-04-02T11:43:51.898Z,0.70
2023-04-02T11:46:45.532Z,0.50
2023-04-02T11:49:40.218Z,0.55
2023-04-02T11:52:24.389Z,0.52
2023-04-02T11:55:22.286Z,0.60
2023-04-02T11:58:20.997Z,0.70
2023-04-02T12:01:21.144Z,0.70
2023-04-02T12:04:13.547Z,1.17
2023-04-02T12:07:02.144Z,0.65
2023-04-02T12:09:46.398Z,0.50
2023-04-02T12:12:32.997Z,0.60
2023-04-02T12:15:44.619Z,0.50
2023-04-02T12:18:27.464Z,0.43
2023-04-02T12:21:15.551Z,0.50
2023-04-02T12:24:00.328Z,0.70
2023-04-02T12:26:46.323Z,0.50
2023-04-02T12:29:29.930Z,0.60
2023-04-02T12:32:20.145Z,0.47
2023-04-02T12:35:04.605Z,0.50
2023-04-02T12:37:53.394Z,0.45
2023-04-02T12:40:37.457Z,0.60
2023-04-02T12:43:27.458Z,0.50
2023-04-02T12:46:10.796Z,0.50
2023-04-02T12:48:53.828Z,0.40
2023-04-02T12:51:37.383Z,0.40
2023-04-02T12:54:20.705Z,0.40
2023-04-02T12:57:37.226Z,0.60
2023-04-02T13:00:43.640Z,0.38
2023-04-02T13:03:29.163Z,0.70
2023-04-02T13:06:30.635Z,0.40
2023-04-02T13:09:28.724Z,0.50
2023-04-02T13:12:24.227Z,0.40
2023-04-02T13:15:07.989Z,0.40
2023-04-02T13:18:03.737Z,0.50
2023-04-02T13:20:57.471Z,0.50
2023-04-02T13:23:40.148Z,0.50
2023-04-02T13:26:24.162Z,0.30
2023-04-02T13:29:17.978Z,0.57
2023-04-02T13:32:01.741Z,0.52
2023-04-02T13:34:44.405Z,0.60
2023-04-02T13:37:28.435Z,0.32
2023-04-02T13:40:14.116Z,0.80
2023-04-02T13:42:56.811Z,0.38
2023-04-02T13:45:40.440Z,0.52
2023-04-02T13:48:26.135Z,0.40
2023-04-02T13:51:10.773Z,0.50
2023-04-02T13:53:56.172Z,0.40
2023-04-02T13:56:38.821Z,0.50
2023-04-02T13:59:21.468Z,0.40
2023-04-02T14:02:05.611Z,0.60
2023-04-02T14:04:51.138Z,0.50
2023-04-02T14:07:41.974Z,0.50
2023-04-02T14:10:32.555Z,0.88
2023-04-02T14:13:22.142Z,0.60
2023-04-02T14:16:17.455Z,0.50
2023-04-02T14:19:06.244Z,0.50
2023-04-02T14:21:54.140Z,0.60
2023-04-02T14:24:45.884Z,0.50
2023-04-02T14:27:37.925Z,0.52
2023-04-02T14:30:24.415Z,0.60
2023-04-02T14:33:09.999Z,0.88
2023-04-02T14:35:55.226Z,1.23
2023-04-02T14:38:41.271Z,0.57
2023-04-02T14:41:26.465Z,0.80
2023-04-02T14:44:12.567Z,0.75
2023-04-02T14:47:00.613Z,0.70
2023-04-02T14:49:44.035Z,0.52
2023-04-02T14:52:28.134Z,0.60
2023-04-02T14:55:14.311Z,0.70
2023-04-02T14:57:57.431Z,0.88
2023-04-02T15:00:42.943Z,0.55
2023-04-02T15:03:28.859Z,0.60
2023-04-02T15:06:12.956Z,0.60
2023-04-02T15:09:08.854Z,0.80
2023-04-02T15:11:54.855Z,0.85
2023-04-02T15:14:39.753Z,0.75
2023-04-02T15:17:24.714Z,0.70
2023-04-02T15:20:13.589Z,0.68
2023-04-02T15:23:01.916Z,0.77
2023-04-02T15:25:48.566Z,0.60
2023-04-02T15:28:37.141Z,0.63
2023-04-02T15:31:21.408Z,0.70
2023-04-02T15:34:15.512Z,0.70
2023-04-02T15:37:02.530Z,0.70
2023-04-02T15:39:52.763Z,0.52
2023-04-02T15:42:38.915Z,0.60
2023-04-02T15:45:30.319Z,0.63
2023-04-02T15:48:19.527Z,0.40
2023-04-02T15:51:12.937Z,0.50
2023-04-02T15:53:58.566Z,0.50
2023-04-02T15:56:48.632Z,0.60
2023-04-02T15:59:50.931Z,0.52
2023-04-02T16:02:51.312Z,0.60
2023-04-02T16:05:37.937Z,0.50
2023-04-02T16:08:28.247Z,0.63
2023-04-02T16:11:11.918Z,0.50
2023-04-02T16:13:59.590Z,0.60
2023-04-02T16:16:43.418Z,0.30
2023-04-02T16:19:30.110Z,0.60
2023-04-02T16:22:15.626Z,0.57
2023-04-02T16:25:02.339Z,0.40
2023-04-02T16:27:46.270Z,0.60
2023-04-02T16:30:34.162Z,0.60
2023-04-02T16:33:23.107Z,0.70
2023-04-02T16:36:14.735Z,0.70
2023-04-02T16:38:59.533Z,0.68
2023-04-02T16:41:50.694Z,0.60
2023-04-02T16:44:37.631Z,0.70
2023-04-02T16:47:25.370Z,0.60
2023-04-02T16:50:14.769Z,0.80
2023-04-02T16:53:00.890Z,1.00
2023-04-02T16:55:48.937Z,0.60
2023-04-02T16:58:40.288Z,0.60
2023-04-02T17:01:28.036Z,0.50
2023-04-02T17:04:20.042Z,0.70
2023-04-02T17:07:07.050Z,0.70
2023-04-02T17:09:51.073Z,0.68
2023-04-02T17:12:36.788Z,0.70
2023-04-02T17:15:28.154Z,0.70
2023-04-02T17:18:14.780Z,1.42
2023-04-02T17:21:00.144Z,1.20
2023-04-02T17:23:55.836Z,1.15
2023-04-02T17:26:39.436Z,1.25
2023-04-02T17:29:24.577Z,1.10
2023-04-02T17:32:15.135Z,0.88
2023-04-02T17:34:58.212Z,1.13
2023-04-02T17:37:43.854Z,0.90
2023-04-02T17:40:29.330Z,0.98
2023-04-02T17:43:14.744Z,0.90
2023-04-02T17:45:59.047Z,1.08
2023-04-02T17:48:45.920Z,0.90
2023-04-02T17:51:34.158Z,0.75
2023-04-02T17:54:25.487Z,0.90
2023-04-02T17:57:14.967Z,0.70
2023-04-02T18:00:04.518Z,0.95
2023-04-02T18:03:07.996Z,1.00
2023-04-02T18:05:55.466Z,0.90
2023-04-02T18:08:41.595Z,1.08
2023-04-02T18:11:30.900Z,1.17
2023-04-02T18:14:22.662Z,1.15
2023-04-02T18:17:10.756Z,1.50
2023-04-02T18:19:55.569Z,1.02
2023-04-02T18:22:43.748Z,1.27
2023-04-02T18:25:33.468Z,0.93
2023-04-02T18:28:22.152Z,0.90
2023-04-02T18:31:08.769Z,0.95
2023-04-02T18:34:01.665Z,0.73
2023-04-02T18:36:48.392Z,0.68
2023-04-02T18:39:37.887Z,0.77
2023-04-02T18:42:25.528Z,0.90
2023-04-02T18:45:13.185Z,0.80
2023-04-02T18:47:59.896Z,0.85
2023-04-02T18:50:46.775Z,0.95
2023-04-02T18:53:31.384Z,1.10
2023-04-02T18:56:18.361Z,1.05
2023-04-02T18:59:07.328Z,0.90
2023-04-02T19:01:51.884Z,0.95
2023-04-02T19:04:35.851Z,0.98
2023-04-02T19:07:19.548Z,1.10
2023-04-02T19:10:05.178Z,1.17
2023-04-02T19:12:49.296Z,1.40
2023-04-02T19:15:39.678Z,1.02
2023-04-02T19:18:27.925Z,1.45
2023-04-02T19:21:15.687Z,1.15
2023-04-02T19:24:04.112Z,1.30
2023-04-02T19:26:50.386Z,1.05
2023-04-02T19:29:39.858Z,1.40
2023-04-02T19:32:26.800Z,2.00
2023-04-02T19:35:17.776Z,2.20
2023-04-02T19:38:14.526Z,1.27
2023-04-02T19:41:00.884Z,1.77
2023-04-02T19:43:43.659Z,1.52
2023-04-02T19:46:27.816Z,1.10
2023-04-02T19:49:12.251Z,1.10
2023-04-02T19:51:55.744Z,1.13
2023-04-02T19:54:38.814Z,0.90
2023-04-02T19:57:21.690Z,1.33
2023-04-02T20:00:04.833Z,1.55
2023-04-02T20:02:56.085Z,1.15
2023-04-02T20:05:39.121Z,1.35
2023-04-02T20:08:22.015Z,1.27
2023-04-02T20:11:04.916Z,1.10
2023-04-02T20:13:48.762Z,1.20
2023-04-02T20:16:32.778Z,0.90
2023-04-02T20:19:16.910Z,1.15
2023-04-02T20:21:59.574Z,1.10
2023-04-02T20:24:42.657Z,1.27
2023-04-02T20:27:25.366Z,1.00
2023-04-02T20:30:08.721Z,1.33
2023-04-02T20:32:51.585Z,1.27
2023-04-02T20:35:37.642Z,1.10
2023-04-02T20:38:20.438Z,1.27
2023-04-02T20:41:03.569Z,1.25
2023-04-02T20:43:46.291Z,1.10
2023-04-02T20:46:29.157Z,1.35
2023-04-02T20:49:12.134Z,1.08
2023-04-02T20:51:56.274Z,1.10
2023-04-02T20:54:38.991Z,1.10
2023-04-02T20:57:22.034Z,0.98
2023-04-02T21:00:06.153Z,1.20
2023-04-02T21:02:48.899Z,1.05
2023-04-02T21:05:31.681Z,1.27
2023-04-02T21:08:15.822Z,1.10
2023-04-02T21:11:05.399Z,1.13
2023-04-02T21:13:48.146Z,1.40
2023-04-02T21:16:31.823Z,1.13
2023-04-02T21:19:15.022Z,1.13
2023-04-02T21:21:57.670Z,1.63
2023-04-02T21:24:42.127Z,1.08
2023-04-02T21:27:25.980Z,0.90
2023-04-02T21:30:09.362Z,1.17
2023-04-02T21:32:52.140Z,1.20
2023-04-02T21:35:35.097Z,0.90
2023-04-02T21:38:17.934Z,0.95
2023-04-02T21:41:11.484Z,1.08
2023-04-02T21:43:54.687Z,1.10
2023-04-02T21:46:38.590Z,1.08
2023-04-02T21:49:21.922Z,1.20
2023-04-02T21:52:04.657Z,1.33
2023-04-02T21:54:47.256Z,0.90
2023-04-02T21:57:31.308Z,1.13
2023-04-02T22:00:15.542Z,0.93
2023-04-02T22:02:58.271Z,1.13
2023-04-02T22:05:40.965Z,1.17
2023-04-02T22:08:23.608Z,1.23
2023-04-02T22:11:07.694Z,0.93
2023-04-02T22:13:51.855Z,0.90
2023-04-02T22:16:35.980Z,0.98
2023-04-02T22:19:18.706Z,1.23
2023-04-02T22:22:01.317Z,1.33
2023-04-02T22:24:43.979Z,1.23
2023-04-02T22:27:26.596Z,1.10
2023-04-02T22:30:11.379Z,1.08
2023-04-02T22:32:54.037Z,1.10
2023-04-02T22:35:36.831Z,1.00
2023-04-02T22:38:19.763Z,1.00
2023-04-02T22:41:06.783Z,1.00
2023-04-02T22:43:50.932Z,1.10
2023-04-02T22:46:35.213Z,1.10
2023-04-02T22:49:19.361Z,1.00
2023-04-02T22:52:05.646Z,0.80
2023-04-02T22:54:48.216Z,1.10
2023-04-02T22:57:31.051Z,1.23
2023-04-02T23:00:15.133Z,1.08
2023-04-02T23:02:59.162Z,1.20
2023-04-02T23:05:42.393Z,1.05
2023-04-02T23:08:25.013Z,0.98
2023-04-02T23:11:08.804Z,1.20
2023-04-02T23:13:52.355Z,0.88
2023-04-02T23:16:35.075Z,1.20
2023-04-02T23:19:19.425Z,1.17
2023-04-02T23:22:02.001Z,1.13
2023-04-02T23:24:44.648Z,1.00
2023-04-02T23:27:27.187Z,1.08
2023-04-02T23:30:10.005Z,1.00
2023-04-02T23:32:52.655Z,1.17
2023-04-02T23:35:36.793Z,0.93
2023-04-02T23:38:19.434Z,1.10
2023-04-02T23:41:02.049Z,1.10
2023-04-02T23:43:44.775Z,1.00
2023-04-02T23:46:27.688Z,0.95
2023-04-02T23:49:11.149Z,1.10
2023-04-02T23:51:55.333Z,1.08
2023-04-02T23:54:37.959Z,1.02
2023-04-02T23:57:20.687Z,0.90
